createdAt,value
2023-05-19T00:00:34.564Z,0.00
2023-05-19T00:01:34.228Z,0.00
2023-05-19T00:02:34.356Z,0.00
2023-05-19T00:03:34.304Z,0.00
2023-05-19T00:04:34.213Z,0.00
2023-05-19T00:05:34.230Z,0.00
2023-05-19T00:06:34.238Z,0.00
2023-05-19T00:07:34.192Z,0.00
2023-05-19T00:08:34.332Z,0.00
2023-05-19T00:09:34.162Z,0.00
2023-05-19T00:10:34.336Z,0.00
2023-05-19T00:11:34.151Z,0.00
2023-05-19T00:12:34.164Z,0.00
2023-05-19T00:13:34.130Z,0.00
2023-05-19T00:14:34.133Z,0.00
2023-05-19T00:15:34.184Z,0.00
2023-05-19T00:16:34.254Z,0.00
2023-05-19T00:17:34.158Z,0.00
2023-05-19T00:18:34.094Z,0.00
2023-05-19T00:19:34.079Z,0.00
2023-05-19T00:20:34.425Z,0.00
2023-05-19T00:21:34.060Z,0.00
2023-05-19T00:22:34.077Z,0.00
2023-05-19T00:23:34.080Z,0.00
2023-05-19T00:24:34.071Z,0.00
2023-05-19T00:25:34.040Z,0.00
2023-05-19T00:26:34.033Z,0.00
2023-05-19T00:27:34.012Z,0.00
2023-05-19T00:28:34.018Z,0.00
2023-05-19T00:29:34.057Z,0.00
2023-05-19T00:30:34.167Z,0.00
2023-05-19T00:31:34.356Z,0.00
2023-05-19T00:32:34.034Z,0.00
2023-05-19T00:33:34.008Z,0.00
2023-05-19T00:34:33.973Z,0.00
2023-05-19T00:35:34.258Z,0.00
2023-05-19T00:36:33.965Z,0.00
2023-05-19T00:37:33.944Z,0.00
2023-05-19T00:38:33.948Z,0.00
2023-05-19T00:39:33.932Z,0.00
2023-05-19T00:40:34.147Z,0.00
2023-05-19T00:41:33.920Z,0.00
2023-05-19T00:42:33.926Z,0.00
2023-05-19T00:43:33.900Z,0.00
2023-05-19T00:44:33.885Z,0.00
2023-05-19T00:45:33.869Z,0.00
2023-05-19T00:46:33.941Z,0.00
2023-05-19T00:47:33.936Z,0.00
2023-05-19T00:48:33.876Z,0.00
2023-05-19T00:49:33.837Z,0.00
2023-05-19T00:50:34.060Z,0.00
2023-05-19T00:51:33.836Z,0.00
2023-05-19T00:52:33.852Z,0.00
2023-05-19T00:53:33.811Z,0.00
2023-05-19T00:54:33.825Z,0.00
2023-05-19T00:55:33.803Z,0.00
2023-05-19T00:56:33.865Z,0.00
2023-05-19T00:57:33.779Z,0.00
2023-05-19T00:58:33.806Z,0.00
2023-05-19T00:59:33.764Z,0.00
2023-05-19T01:00:34.010Z,0.00
2023-05-19T01:01:33.852Z,0.00
2023-05-19T01:02:33.811Z,0.00
2023-05-19T01:03:33.793Z,0.00
2023-05-19T01:04:33.756Z,0.00
2023-05-19T01:05:33.712Z,0.00
2023-05-19T01:06:33.712Z,0.00
2023-05-19T01:07:33.689Z,0.00
2023-05-19T01:08:33.706Z,0.00
2023-05-19T01:09:33.724Z,0.00
2023-05-19T01:10:33.861Z,0.00
2023-05-19T01:11:33.658Z,0.00
2023-05-19T01:12:33.656Z,0.00
2023-05-19T01:13:33.651Z,0.00
2023-05-19T01:14:33.648Z,0.00
2023-05-19T01:15:33.694Z,0.00
2023-05-19T01:16:33.701Z,0.00
2023-05-19T01:17:33.660Z,0.00
2023-05-19T01:18:33.621Z,0.00
2023-05-19T01:19:33.591Z,0.00
2023-05-19T01:20:33.833Z,0.00
2023-05-19T01:21:33.611Z,0.00
2023-05-19T01:22:33.582Z,0.00
2023-05-19T01:23:33.566Z,0.00
2023-05-19T01:24:33.573Z,0.00
2023-05-19T01:25:33.536Z,0.00
2023-05-19T01:26:33.597Z,0.00
2023-05-19T01:27:33.532Z,0.00
2023-05-19T01:28:33.527Z,0.00
2023-05-19T01:29:33.525Z,0.00
2023-05-19T01:30:33.702Z,0.00
2023-05-19T01:31:33.554Z,0.00
2023-05-19T01:32:34.249Z,0.00
2023-05-19T01:33:33.492Z,0.00
2023-05-19T01:34:33.500Z,0.00
2023-05-19T01:35:33.482Z,0.00
2023-05-19T01:36:33.476Z,0.00
2023-05-19T01:37:33.455Z,0.00
2023-05-19T01:38:33.509Z,0.00
2023-05-19T01:39:33.431Z,0.00
2023-05-19T01:40:33.706Z,0.00
2023-05-19T01:41:33.413Z,0.00
2023-05-19T01:42:33.525Z,0.00
2023-05-19T01:43:33.429Z,0.00
2023-05-19T01:44:33.432Z,0.00
2023-05-19T01:45:33.503Z,0.00
2023-05-19T01:46:33.423Z,0.00
2023-05-19T01:47:33.400Z,0.00
2023-05-19T01:48:33.385Z,0.00
2023-05-19T01:49:33.366Z,0.00
2023-05-19T01:50:33.861Z,0.00
2023-05-19T01:51:33.409Z,0.00
2023-05-19T01:52:33.435Z,0.00
2023-05-19T01:53:33.323Z,0.00
2023-05-19T01:54:33.347Z,0.00
2023-05-19T01:55:33.320Z,0.00
2023-05-19T01:56:33.347Z,0.00
2023-05-19T01:57:33.295Z,0.00
2023-05-19T01:58:33.295Z,0.00
2023-05-19T01:59:33.284Z,0.00
2023-05-19T02:00:33.549Z,0.00
2023-05-19T02:01:33.295Z,0.00
2023-05-19T02:02:33.309Z,0.00
2023-05-19T02:03:33.272Z,0.00
2023-05-19T02:04:33.320Z,0.00
2023-05-19T02:05:33.283Z,0.00
2023-05-19T02:06:33.236Z,0.00
2023-05-19T02:07:33.211Z,0.00
2023-05-19T02:08:33.242Z,0.00
2023-05-19T02:09:33.196Z,0.00
2023-05-19T02:10:33.360Z,0.00
2023-05-19T02:11:33.170Z,0.00
2023-05-19T02:12:33.179Z,0.00
2023-05-19T02:13:33.186Z,0.00
2023-05-19T02:14:33.174Z,0.00
2023-05-19T02:15:33.165Z,0.00
2023-05-19T02:16:33.135Z,0.00
2023-05-19T02:17:33.263Z,0.00
2023-05-19T02:18:33.141Z,0.00
2023-05-19T02:19:33.157Z,0.00
2023-05-19T02:20:33.492Z,0.00
2023-05-19T02:21:33.107Z,0.00
2023-05-19T02:22:33.088Z,0.00
2023-05-19T02:23:33.093Z,0.00
2023-05-19T02:24:33.116Z,0.00
2023-05-19T02:25:33.075Z,0.00
2023-05-19T02:26:33.058Z,0.00
2023-05-19T02:27:33.070Z,0.00
2023-05-19T02:28:33.033Z,0.00
2023-05-19T02:29:33.039Z,0.00
2023-05-19T02:30:33.231Z,0.00
2023-05-19T02:31:33.149Z,0.00
2023-05-19T02:32:33.114Z,0.00
2023-05-19T02:33:33.003Z,0.00
2023-05-19T02:34:33.001Z,0.00
2023-05-19T02:35:32.989Z,0.00
2023-05-19T02:36:32.985Z,0.00
2023-05-19T02:37:32.965Z,0.00
2023-05-19T02:38:32.991Z,0.00
2023-05-19T02:39:32.951Z,0.00
2023-05-19T02:40:33.194Z,0.00
2023-05-19T02:41:32.954Z,0.00
2023-05-19T02:42:32.975Z,0.00
2023-05-19T02:43:32.920Z,0.00
2023-05-19T02:44:32.903Z,1.00
2023-05-19T02:45:32.901Z,1.00
2023-05-19T02:46:32.960Z,1.00
2023-05-19T02:47:34.676Z,1.00
2023-05-19T02:48:32.879Z,1.00
2023-05-19T02:49:32.902Z,1.00
2023-05-19T02:50:33.064Z,0.00
2023-05-19T02:51:32.848Z,1.00
2023-05-19T02:52:32.845Z,1.00
2023-05-19T02:53:32.887Z,1.00
2023-05-19T02:54:32.819Z,1.00
2023-05-19T02:55:32.819Z,2.00
2023-05-19T02:56:32.868Z,2.00
2023-05-19T02:57:32.799Z,2.00
2023-05-19T02:58:32.777Z,2.00
2023-05-19T02:59:32.769Z,3.00
2023-05-19T03:00:32.986Z,3.00
2023-05-19T03:01:32.791Z,4.00
2023-05-19T03:02:32.800Z,4.00
2023-05-19T03:03:32.797Z,6.00
2023-05-19T03:04:32.766Z,6.00
2023-05-19T03:05:32.726Z,7.00
2023-05-19T03:06:32.708Z,8.00
2023-05-19T03:07:32.735Z,8.00
2023-05-19T03:08:32.736Z,12.00
2023-05-19T03:09:32.698Z,13.00
2023-05-19T03:10:32.837Z,14.00
2023-05-19T03:11:32.682Z,18.00
2023-05-19T03:12:32.655Z,18.00
2023-05-19T03:13:32.667Z,19.00
2023-05-19T03:14:32.683Z,23.00
2023-05-19T03:15:32.623Z,27.00
2023-05-19T03:16:32.646Z,29.00
2023-05-19T03:17:32.699Z,30.00
2023-05-19T03:18:32.594Z,36.00
2023-05-19T03:19:32.605Z,41.00
2023-05-19T03:20:32.969Z,43.00
2023-05-19T03:21:32.599Z,47.00
2023-05-19T03:22:32.565Z,52.00
2023-05-19T03:23:32.565Z,57.00
2023-05-19T03:24:32.556Z,64.00
2023-05-19T03:25:32.545Z,69.00
2023-05-19T03:26:32.561Z,75.00
2023-05-19T03:27:32.532Z,79.00
2023-05-19T03:28:32.511Z,87.00
2023-05-19T03:29:32.521Z,95.00
2023-05-19T03:30:32.806Z,104.00
2023-05-19T03:31:32.508Z,109.00
2023-05-19T03:32:32.579Z,117.00
2023-05-19T03:33:32.515Z,124.00
2023-05-19T03:34:32.476Z,134.00
2023-05-19T03:35:32.471Z,141.00
2023-05-19T03:36:32.454Z,149.00
2023-05-19T03:37:32.459Z,160.00
2023-05-19T03:38:32.483Z,170.00
2023-05-19T03:39:32.436Z,181.00
2023-05-19T03:40:32.616Z,190.00
2023-05-19T03:41:32.414Z,201.00
2023-05-19T03:42:32.414Z,212.00
2023-05-19T03:43:32.402Z,224.00
2023-05-19T03:44:32.453Z,234.00
2023-05-19T03:45:32.405Z,246.00
2023-05-19T03:46:32.371Z,257.00
2023-05-19T03:47:32.497Z,268.00
2023-05-19T03:48:32.358Z,279.00
2023-05-19T03:49:32.359Z,292.00
2023-05-19T03:50:32.659Z,303.00
2023-05-19T03:51:32.374Z,314.00
2023-05-19T03:52:32.332Z,327.00
2023-05-19T03:53:32.347Z,341.00
2023-05-19T03:54:32.308Z,355.00
2023-05-19T03:55:32.359Z,368.00
2023-05-19T03:56:32.329Z,383.00
2023-05-19T03:57:32.279Z,400.00
2023-05-19T03:58:32.273Z,415.00
2023-05-19T03:59:32.275Z,434.00
2023-05-19T04:00:32.555Z,454.00
2023-05-19T04:01:32.281Z,469.00
2023-05-19T04:02:32.330Z,491.00
2023-05-19T04:03:32.337Z,510.00
2023-05-19T04:04:32.266Z,531.00
2023-05-19T04:05:32.271Z,550.00
2023-05-19T04:06:32.220Z,571.00
2023-05-19T04:07:32.271Z,595.00
2023-05-19T04:08:32.197Z,615.00
2023-05-19T04:09:32.214Z,636.00
2023-05-19T04:10:32.330Z,661.00
2023-05-19T04:11:32.185Z,682.00
2023-05-19T04:12:32.158Z,699.00
2023-05-19T04:13:32.177Z,728.00
2023-05-19T04:14:32.142Z,759.00
2023-05-19T04:15:32.165Z,776.00
2023-05-19T04:16:32.181Z,798.00
2023-05-19T04:17:32.165Z,808.00
2023-05-19T04:18:32.153Z,824.00
2023-05-19T04:19:32.215Z,843.00
2023-05-19T04:20:32.183Z,859.00
2023-05-19T04:21:32.093Z,880.00
2023-05-19T04:22:32.105Z,906.00
2023-05-19T04:23:32.116Z,931.00
2023-05-19T04:24:32.055Z,958.00
2023-05-19T04:25:32.078Z,984.00
2023-05-19T04:26:32.049Z,1004.00
2023-05-19T04:27:32.117Z,1035.00
2023-05-19T04:28:32.075Z,1068.00
2023-05-19T04:29:32.034Z,1090.00
2023-05-19T04:30:32.174Z,1122.00
2023-05-19T04:31:32.052Z,1188.00
2023-05-19T04:32:32.015Z,1305.00
2023-05-19T04:33:31.995Z,1368.00
2023-05-19T04:34:31.995Z,1365.00
2023-05-19T04:35:32.028Z,1349.00
2023-05-19T04:36:31.954Z,1438.00
2023-05-19T04:37:31.950Z,1581.00
2023-05-19T04:38:31.932Z,1566.00
2023-05-19T04:39:31.938Z,1680.00
2023-05-19T04:40:32.406Z,1817.00
2023-05-19T04:41:31.925Z,1861.00
2023-05-19T04:42:31.914Z,2011.00
2023-05-19T04:43:31.935Z,2169.00
2023-05-19T04:44:31.898Z,2301.00
2023-05-19T04:45:31.886Z,2386.00
2023-05-19T04:46:31.957Z,2367.00
2023-05-19T04:47:31.958Z,2368.00
2023-05-19T04:48:31.840Z,2532.00
2023-05-19T04:49:31.860Z,2709.00
2023-05-19T04:50:31.952Z,2777.00
2023-05-19T04:51:31.844Z,2821.00
2023-05-19T04:52:31.944Z,2745.00
2023-05-19T04:53:31.878Z,2714.00
2023-05-19T04:54:31.816Z,2769.00
2023-05-19T04:55:31.810Z,2887.00
2023-05-19T04:56:31.791Z,3124.00
2023-05-19T04:57:31.798Z,3187.00
2023-05-19T04:58:31.857Z,2919.00
2023-05-19T04:59:31.774Z,2976.00
2023-05-19T05:00:31.886Z,3392.00
2023-05-19T05:01:31.798Z,3655.00
2023-05-19T05:02:31.749Z,3787.00
2023-05-19T05:03:31.782Z,3928.00
2023-05-19T05:04:31.730Z,3987.00
2023-05-19T05:05:31.732Z,4104.00
2023-05-19T05:06:31.764Z,4181.00
2023-05-19T05:07:32.640Z,4249.00
2023-05-19T05:08:31.688Z,4304.00
2023-05-19T05:09:31.689Z,4315.00
2023-05-19T05:10:31.929Z,3843.00
2023-05-19T05:11:31.703Z,3754.00
2023-05-19T05:12:31.658Z,4398.00
2023-05-19T05:13:31.654Z,4811.00
2023-05-19T05:14:31.633Z,4902.00
2023-05-19T05:15:31.645Z,5025.00
2023-05-19T05:16:31.642Z,5239.00
2023-05-19T05:17:31.711Z,5464.00
2023-05-19T05:18:31.601Z,5924.00
2023-05-19T05:19:31.723Z,6647.00
2023-05-19T05:20:31.876Z,6939.00
2023-05-19T05:21:31.864Z,6972.00
2023-05-19T05:22:31.584Z,6969.00
2023-05-19T05:23:31.561Z,6880.00
2023-05-19T05:24:31.555Z,6804.00
2023-05-19T05:25:31.752Z,6789.00
2023-05-19T05:26:31.604Z,6755.00
2023-05-19T05:27:31.546Z,6870.00
2023-05-19T05:28:31.571Z,7133.00
2023-05-19T05:29:31.520Z,8158.00
2023-05-19T05:30:31.511Z,8873.00
2023-05-19T05:31:31.506Z,9281.00
2023-05-19T05:32:31.509Z,8832.00
2023-05-19T05:33:31.542Z,8533.00
2023-05-19T05:34:31.485Z,8570.00
2023-05-19T05:35:31.625Z,8495.00
2023-05-19T05:36:31.475Z,9520.00
2023-05-19T05:37:31.466Z,10926.00
2023-05-19T05:38:31.472Z,12004.00
2023-05-19T05:39:31.491Z,12860.00
2023-05-19T05:40:31.451Z,13504.00
2023-05-19T05:41:31.436Z,12763.00
2023-05-19T05:42:31.422Z,12203.00
2023-05-19T05:43:31.439Z,10025.00
2023-05-19T05:44:31.395Z,10979.00
2023-05-19T05:45:31.639Z,9770.00
2023-05-19T05:46:31.419Z,9049.00
2023-05-19T05:47:31.466Z,9191.00
2023-05-19T05:48:31.383Z,9385.00
2023-05-19T05:49:31.389Z,9333.00
2023-05-19T05:50:31.392Z,9524.00
2023-05-19T05:51:31.381Z,9358.00
2023-05-19T05:52:31.343Z,7689.00
2023-05-19T05:53:31.345Z,8193.00
2023-05-19T05:54:31.338Z,6751.00
2023-05-19T05:55:31.521Z,7559.00
2023-05-19T05:56:31.368Z,7756.00
2023-05-19T05:57:31.330Z,8016.00
2023-05-19T05:58:31.305Z,7869.00
2023-05-19T05:59:31.307Z,7545.00
2023-05-19T06:00:31.481Z,7579.00
2023-05-19T06:01:32.170Z,8261.00
2023-05-19T06:02:31.352Z,8272.00
2023-05-19T06:03:31.273Z,8079.00
2023-05-19T06:04:31.250Z,8039.00
2023-05-19T06:05:31.392Z,7927.00
2023-05-19T06:06:31.240Z,7685.00
2023-05-19T06:07:31.248Z,7819.00
2023-05-19T06:08:31.331Z,8471.00
2023-05-19T06:09:31.228Z,7989.00
2023-05-19T06:10:31.424Z,7699.00
2023-05-19T06:11:31.203Z,8151.00
2023-05-19T06:12:31.222Z,7553.00
2023-05-19T06:13:31.191Z,6427.00
2023-05-19T06:14:31.188Z,6881.00
2023-05-19T06:15:31.310Z,7036.00
2023-05-19T06:16:31.185Z,7088.00
2023-05-19T06:17:31.215Z,7158.00
2023-05-19T06:18:31.140Z,7792.00
2023-05-19T06:19:31.165Z,8332.00
2023-05-19T06:20:31.285Z,8424.00
2023-05-19T06:21:31.134Z,8074.00
2023-05-19T06:22:31.130Z,7658.00
2023-05-19T06:23:31.125Z,7366.00
2023-05-19T06:24:31.090Z,7281.00
2023-05-19T06:25:31.232Z,7343.00
2023-05-19T06:26:31.637Z,7601.00
2023-05-19T06:27:33.226Z,7448.00
2023-05-19T06:28:31.086Z,7756.00
2023-05-19T06:29:31.047Z,7823.00
2023-05-19T06:30:31.106Z,6932.00
2023-05-19T06:31:31.239Z,6686.00
2023-05-19T06:32:31.122Z,6579.00
2023-05-19T06:33:31.013Z,5883.00
2023-05-19T06:34:31.016Z,5185.00
2023-05-19T06:35:31.217Z,5123.00
2023-05-19T06:36:30.991Z,5066.00
2023-05-19T06:37:31.249Z,5060.00
2023-05-19T06:38:31.023Z,5032.00
2023-05-19T06:39:30.977Z,4990.00
2023-05-19T06:40:32.217Z,5025.00
2023-05-19T06:41:30.927Z,4887.00
2023-05-19T06:42:30.932Z,5088.00
2023-05-19T06:43:31.019Z,5075.00
2023-05-19T06:44:30.968Z,5105.00
2023-05-19T06:45:30.899Z,5131.00
2023-05-19T06:46:30.952Z,5139.00
2023-05-19T06:47:30.899Z,4997.00
2023-05-19T06:48:30.996Z,5083.00
2023-05-19T06:49:30.940Z,5073.00
2023-05-19T06:50:31.100Z,5090.00
2023-05-19T06:51:30.873Z,5089.00
2023-05-19T06:52:31.863Z,5116.00
2023-05-19T06:53:30.860Z,5160.00
2023-05-19T06:54:31.194Z,5233.00
2023-05-19T06:55:31.034Z,5275.00
2023-05-19T06:56:30.851Z,5284.00
2023-05-19T06:57:30.911Z,5298.00
2023-05-19T06:58:30.810Z,5358.00
2023-05-19T06:59:31.032Z,5375.00
2023-05-19T07:00:30.916Z,5330.00
2023-05-19T07:01:30.802Z,5397.00
2023-05-19T07:02:30.951Z,5475.00
2023-05-19T07:03:31.103Z,5534.00
2023-05-19T07:04:30.761Z,5530.00
2023-05-19T07:05:30.751Z,5505.00
2023-05-19T07:06:30.767Z,5455.00
2023-05-19T07:07:30.724Z,5390.00
2023-05-19T07:08:30.734Z,5526.00
2023-05-19T07:09:30.891Z,5605.00
2023-05-19T07:10:30.890Z,5713.00
2023-05-19T07:11:30.685Z,5728.00
2023-05-19T07:12:30.725Z,5771.00
2023-05-19T07:13:30.828Z,5820.00
2023-05-19T07:14:30.688Z,5866.00
2023-05-19T07:15:30.646Z,5907.00
2023-05-19T07:16:30.680Z,5940.00
2023-05-19T07:17:30.639Z,5965.00
2023-05-19T07:18:30.691Z,5958.00
2023-05-19T07:19:30.771Z,5919.00
2023-05-19T07:20:30.861Z,5909.00
2023-05-19T07:21:30.592Z,6043.00
2023-05-19T07:22:30.666Z,6057.00
2023-05-19T07:23:30.591Z,6086.00
2023-05-19T07:24:30.610Z,6210.00
2023-05-19T07:25:30.567Z,6313.00
2023-05-19T07:26:30.566Z,6426.00
2023-05-19T07:27:30.624Z,6521.00
2023-05-19T07:28:30.577Z,6535.00
2023-05-19T07:29:30.554Z,6583.00
2023-05-19T07:30:30.805Z,6614.00
2023-05-19T07:31:30.536Z,6618.00
2023-05-19T07:32:30.549Z,6655.00
2023-05-19T07:33:30.504Z,6533.00
2023-05-19T07:34:30.543Z,6591.00
2023-05-19T07:35:30.494Z,6664.00
2023-05-19T07:36:30.489Z,6757.00
2023-05-19T07:37:30.500Z,6853.00
2023-05-19T07:38:30.498Z,6834.00
2023-05-19T07:39:30.462Z,6846.00
2023-05-19T07:40:30.588Z,6879.00
2023-05-19T07:41:30.427Z,6870.00
2023-05-19T07:42:30.437Z,6848.00
2023-05-19T07:43:30.420Z,6839.00
2023-05-19T07:44:30.430Z,6917.00
2023-05-19T07:45:30.406Z,7064.00
2023-05-19T07:46:30.509Z,7174.00
2023-05-19T07:47:30.401Z,7192.00
2023-05-19T07:48:30.456Z,7239.00
2023-05-19T07:49:30.360Z,7236.00
2023-05-19T07:50:30.491Z,6986.00
2023-05-19T07:51:30.371Z,7019.00
2023-05-19T07:52:30.387Z,7204.00
2023-05-19T07:53:30.477Z,7242.00
2023-05-19T07:54:30.333Z,7246.00
2023-05-19T07:55:30.326Z,7210.00
2023-05-19T07:56:30.903Z,7156.00
2023-05-19T07:57:30.319Z,6992.00
2023-05-19T07:58:30.344Z,6984.00
2023-05-19T07:59:30.296Z,7096.00
2023-05-19T08:00:30.756Z,7018.00
2023-05-19T08:01:30.297Z,6871.00
2023-05-19T08:02:30.367Z,6819.00
2023-05-19T08:03:31.173Z,6996.00
2023-05-19T08:04:30.289Z,7142.00
2023-05-19T08:05:30.243Z,7177.00
2023-05-19T08:06:30.231Z,7218.00
2023-05-19T08:07:30.230Z,7265.00
2023-05-19T08:08:30.247Z,7195.00
2023-05-19T08:09:30.186Z,7206.00
2023-05-19T08:10:30.320Z,7226.00
2023-05-19T08:11:30.180Z,7215.00
2023-05-19T08:12:30.224Z,7174.00
2023-05-19T08:13:30.184Z,7022.00
2023-05-19T08:14:30.417Z,6909.00
2023-05-19T08:15:30.167Z,6908.00
2023-05-19T08:16:30.517Z,6775.00
2023-05-19T08:17:30.191Z,6851.00
2023-05-19T08:18:30.158Z,7077.00
2023-05-19T08:19:30.251Z,7049.00
2023-05-19T08:20:30.307Z,7463.00
2023-05-19T08:21:31.623Z,7600.00
2023-05-19T08:22:30.095Z,7701.00
2023-05-19T08:23:30.086Z,7833.00
2023-05-19T08:24:30.084Z,7875.00
2023-05-19T08:25:30.139Z,7881.00
2023-05-19T08:26:30.608Z,7926.00
2023-05-19T08:27:30.746Z,8051.00
2023-05-19T08:28:30.052Z,8016.00
2023-05-19T08:29:30.037Z,8044.00
2023-05-19T08:30:30.034Z,7964.00
2023-05-19T08:31:30.081Z,7958.00
2023-05-19T08:32:30.079Z,7912.00
2023-05-19T08:33:30.043Z,7695.00
2023-05-19T08:34:30.010Z,7145.00
2023-05-19T08:35:30.938Z,7677.00
2023-05-19T08:36:30.004Z,7460.00
2023-05-19T08:37:31.418Z,7569.00
2023-05-19T08:38:30.000Z,7729.00
2023-05-19T08:39:30.873Z,7874.00
2023-05-19T08:40:30.058Z,7917.00
2023-05-19T08:41:29.934Z,8018.00
2023-05-19T08:42:29.995Z,8108.00
2023-05-19T08:43:31.242Z,8111.00
2023-05-19T08:44:29.944Z,8151.00
2023-05-19T08:45:30.092Z,8085.00
2023-05-19T08:46:30.866Z,8216.00
2023-05-19T08:47:31.119Z,8067.00
2023-05-19T08:48:30.055Z,8285.00
2023-05-19T08:49:29.913Z,8315.00
2023-05-19T08:50:29.903Z,8253.00
2023-05-19T08:51:29.860Z,8249.00
2023-05-19T08:52:29.874Z,8201.00
2023-05-19T08:53:33.051Z,8254.00
2023-05-19T08:54:29.859Z,8127.00
2023-05-19T08:55:29.913Z,7708.00
2023-05-19T08:56:29.865Z,7954.00
2023-05-19T08:57:29.804Z,7889.00
2023-05-19T08:58:29.841Z,7728.00
2023-05-19T08:59:29.793Z,8029.00
2023-05-19T09:00:29.822Z,8340.00
2023-05-19T09:01:29.847Z,8570.00
2023-05-19T09:02:29.826Z,8586.00
2023-05-19T09:03:29.812Z,8657.00
2023-05-19T09:04:30.249Z,8639.00
2023-05-19T09:05:29.768Z,8575.00
2023-05-19T09:06:29.789Z,8539.00
2023-05-19T09:07:29.720Z,8468.00
2023-05-19T09:08:29.863Z,8370.00
2023-05-19T09:09:29.702Z,8371.00
2023-05-19T09:10:29.718Z,8390.00
2023-05-19T09:11:29.740Z,8307.00
2023-05-19T09:12:29.699Z,8214.00
2023-05-19T09:13:29.684Z,8138.00
2023-05-19T09:14:29.767Z,8083.00
2023-05-19T09:15:29.677Z,8075.00
2023-05-19T09:16:30.326Z,8002.00
2023-05-19T09:17:29.696Z,7915.00
2023-05-19T09:18:29.634Z,7826.00
2023-05-19T09:19:29.757Z,7722.00
2023-05-19T09:20:29.668Z,7644.00
2023-05-19T09:21:29.643Z,7542.00
2023-05-19T09:22:29.771Z,7405.00
2023-05-19T09:23:29.665Z,7306.00
2023-05-19T09:24:29.689Z,7265.00
2023-05-19T09:25:29.574Z,7167.00
2023-05-19T09:26:29.584Z,7064.00
2023-05-19T09:27:29.572Z,6972.00
2023-05-19T09:28:29.594Z,6816.00
2023-05-19T09:29:29.592Z,6745.00
2023-05-19T09:30:31.426Z,6696.00
2023-05-19T09:31:29.560Z,6640.00
2023-05-19T09:32:29.736Z,6533.00
2023-05-19T09:33:29.566Z,6482.00
2023-05-19T09:34:29.552Z,6390.00
2023-05-19T09:35:29.518Z,6346.00
2023-05-19T09:36:29.502Z,6329.00
2023-05-19T09:37:29.482Z,6276.00
2023-05-19T09:38:29.506Z,6375.00
2023-05-19T09:39:29.490Z,6521.00
2023-05-19T09:40:29.474Z,6762.00
2023-05-19T09:41:29.456Z,6941.00
2023-05-19T09:42:29.445Z,7201.00
2023-05-19T09:43:29.450Z,7355.00
2023-05-19T09:44:29.671Z,7401.00
2023-05-19T09:45:29.469Z,7432.00
2023-05-19T09:46:29.534Z,7472.00
2023-05-19T09:47:29.460Z,7442.00
2023-05-19T09:48:29.407Z,7322.00
2023-05-19T09:49:29.468Z,7173.00
2023-05-19T09:50:29.389Z,7081.00
2023-05-19T09:51:29.373Z,7066.00
2023-05-19T09:52:29.477Z,6918.00
2023-05-19T09:53:29.348Z,7100.00
2023-05-19T09:54:29.439Z,6982.00
2023-05-19T09:55:29.351Z,7249.00
2023-05-19T09:56:29.353Z,7232.00
2023-05-19T09:57:29.324Z,7191.00
2023-05-19T09:58:29.326Z,7118.00
2023-05-19T09:59:32.117Z,6852.00
2023-05-19T10:00:29.384Z,6131.00
2023-05-19T10:01:29.341Z,6399.00
2023-05-19T10:02:29.318Z,6767.00
2023-05-19T10:03:29.501Z,6810.00
2023-05-19T10:04:29.352Z,6803.00
2023-05-19T10:05:29.251Z,6874.00
2023-05-19T10:06:29.288Z,6812.00
2023-05-19T10:07:29.281Z,6868.00
2023-05-19T10:08:29.253Z,6886.00
2023-05-19T10:09:29.377Z,7017.00
2023-05-19T10:10:29.250Z,7118.00
2023-05-19T10:11:29.262Z,7096.00
2023-05-19T10:12:29.222Z,7195.00
2023-05-19T10:13:29.245Z,7274.00
2023-05-19T10:14:29.248Z,7354.00
2023-05-19T10:15:29.188Z,7365.00
2023-05-19T10:16:29.200Z,7334.00
2023-05-19T10:17:29.201Z,7255.00
2023-05-19T10:18:29.169Z,7161.00
2023-05-19T10:19:29.456Z,6967.00
2023-05-19T10:20:36.188Z,6831.00
2023-05-19T10:21:29.167Z,7033.00
2023-05-19T10:22:29.181Z,7085.00
2023-05-19T10:23:29.184Z,7133.00
2023-05-19T10:24:29.433Z,7032.00
2023-05-19T10:25:29.115Z,7111.00
2023-05-19T10:26:29.149Z,7143.00
2023-05-19T10:27:29.096Z,7152.00
2023-05-19T10:28:29.087Z,7055.00
2023-05-19T10:29:29.144Z,7042.00
2023-05-19T10:30:29.089Z,6934.00
2023-05-19T10:31:29.123Z,6968.00
2023-05-19T10:32:29.135Z,6902.00
2023-05-19T10:33:29.068Z,6895.00
2023-05-19T10:34:29.053Z,6859.00
2023-05-19T10:35:29.055Z,6895.00
2023-05-19T10:36:29.045Z,6905.00
2023-05-19T10:37:29.025Z,6924.00
2023-05-19T10:38:29.066Z,6972.00
2023-05-19T10:39:29.036Z,6915.00
2023-05-19T10:40:29.867Z,6908.00
2023-05-19T10:41:29.016Z,6884.00
2023-05-19T10:42:29.009Z,6883.00
2023-05-19T10:43:28.987Z,6878.00
2023-05-19T10:44:28.980Z,6856.00
2023-05-19T10:45:28.969Z,6959.00
2023-05-19T10:46:29.008Z,7005.00
2023-05-19T10:47:29.004Z,7064.00
2023-05-19T10:48:28.925Z,7098.00
2023-05-19T10:49:28.936Z,7189.00
2023-05-19T10:50:28.929Z,7255.00
2023-05-19T10:51:28.910Z,7317.00
2023-05-19T10:52:28.900Z,7501.00
2023-05-19T10:53:28.899Z,7689.00
2023-05-19T10:54:28.887Z,7846.00
2023-05-19T10:55:29.103Z,8015.00
2023-05-19T10:56:28.900Z,8199.00
2023-05-19T10:57:28.868Z,8250.00
2023-05-19T10:58:28.851Z,8300.00
2023-05-19T10:59:29.648Z,8314.00
2023-05-19T11:00:28.885Z,8246.00
2023-05-19T11:01:28.920Z,8130.00
2023-05-19T11:02:28.874Z,8458.00
2023-05-19T11:03:29.010Z,8584.00
2023-05-19T11:04:28.852Z,8673.00
2023-05-19T11:05:28.792Z,8455.00
2023-05-19T11:06:28.800Z,8485.00
2023-05-19T11:07:28.782Z,8786.00
2023-05-19T11:08:28.788Z,8812.00
2023-05-19T11:09:39.626Z,9006.00
2023-05-19T11:10:29.801Z,9213.00
2023-05-19T11:11:28.750Z,9184.00
2023-05-19T11:12:28.842Z,9327.00
2023-05-19T11:13:28.750Z,9548.00
2023-05-19T11:15:39.201Z,9474.00
2023-05-19T11:16:39.268Z,8901.00
2023-05-19T11:17:39.262Z,8333.00
2023-05-19T11:18:39.210Z,8164.00
2023-05-19T11:19:39.189Z,8389.00
2023-05-19T11:20:39.315Z,8196.00
2023-05-19T11:21:39.199Z,8178.00
2023-05-19T11:22:39.249Z,7938.00
2023-05-19T11:23:39.280Z,7986.00
2023-05-19T11:24:39.160Z,7797.00
2023-05-19T11:25:39.184Z,7326.00
2023-05-19T11:26:39.148Z,7591.00
2023-05-19T11:27:39.178Z,7283.00
2023-05-19T11:28:39.116Z,6714.00
2023-05-19T11:29:39.111Z,6713.00
2023-05-19T11:30:39.120Z,6748.00
2023-05-19T11:31:39.153Z,6476.00
2023-05-19T11:32:39.236Z,6363.00
2023-05-19T11:33:39.148Z,6473.00
2023-05-19T11:34:39.062Z,6348.00
2023-05-19T11:35:39.353Z,6475.00
2023-05-19T11:36:39.080Z,6290.00
2023-05-19T11:37:39.049Z,6144.00
2023-05-19T11:38:39.028Z,6129.00
2023-05-19T11:39:39.106Z,6450.00
2023-05-19T11:40:39.041Z,6487.00
2023-05-19T11:41:39.008Z,6258.00
2023-05-19T11:42:38.993Z,6169.00
2023-05-19T11:43:39.007Z,6105.00
2023-05-19T11:44:38.997Z,6056.00
2023-05-19T11:45:39.068Z,6071.00
2023-05-19T11:46:39.299Z,6101.00
2023-05-19T11:47:51.662Z,6178.00
2023-05-19T11:48:39.975Z,6181.00
2023-05-19T11:49:38.942Z,6221.00
2023-05-19T11:50:38.999Z,6274.00
2023-05-19T11:51:38.950Z,6353.00
2023-05-19T11:52:38.969Z,6380.00
2023-05-19T11:53:38.983Z,6360.00
2023-05-19T11:54:38.939Z,6381.00
2023-05-19T11:55:38.943Z,6293.00
2023-05-19T11:56:38.895Z,6341.00
2023-05-19T11:57:39.633Z,6511.00
2023-05-19T11:58:38.889Z,6795.00
2023-05-19T11:59:38.891Z,6767.00
2023-05-19T12:00:38.867Z,6749.00
2023-05-19T12:01:38.882Z,6807.00
2023-05-19T12:02:38.973Z,6917.00
2023-05-19T12:03:38.993Z,6782.00
2023-05-19T12:04:38.934Z,6872.00
2023-05-19T12:05:41.755Z,6948.00
2023-05-19T12:06:38.915Z,6611.00
2023-05-19T12:07:38.797Z,6761.00
2023-05-19T12:08:38.801Z,6793.00
2023-05-19T12:09:38.818Z,6672.00
2023-05-19T12:10:38.778Z,6718.00
2023-05-19T12:11:38.770Z,6667.00
2023-05-19T12:12:38.919Z,6881.00
2023-05-19T12:13:38.778Z,6722.00
2023-05-19T12:14:38.828Z,6836.00
2023-05-19T12:15:39.020Z,7058.00
2023-05-19T12:16:38.792Z,6969.00
2023-05-19T12:17:38.738Z,6904.00
2023-05-19T12:18:38.737Z,6561.00
2023-05-19T12:19:38.691Z,6404.00
2023-05-19T12:20:38.687Z,6565.00
2023-05-19T12:21:38.674Z,6660.00
2023-05-19T12:22:38.665Z,6763.00
2023-05-19T12:23:38.638Z,6685.00
2023-05-19T12:24:38.695Z,6620.00
2023-05-19T12:25:38.658Z,6695.00
2023-05-19T12:26:38.681Z,6637.00